createdAt,value
2023-03-18T00:00:20.117Z,9.72
2023-03-18T00:01:20.090Z,9.72
2023-03-18T00:02:20.143Z,9.72
2023-03-18T00:03:20.091Z,9.61
2023-03-18T00:04:20.054Z,9.15
2023-03-18T00:05:20.039Z,8.33
2023-03-18T00:06:20.030Z,9.75
2023-03-18T00:07:20.038Z,10.09
2023-03-18T00:08:20.004Z,19.14
2023-03-18T00:09:20.004Z,19.14
2023-03-18T00:10:19.991Z,7.71
2023-03-18T00:11:19.988Z,9.28
2023-03-18T00:12:19.964Z,6.93
2023-03-18T00:13:19.953Z,6.93
2023-03-18T00:14:19.943Z,6.57
2023-03-18T00:15:19.933Z,7.02
2023-03-18T00:16:20.020Z,7.02
2023-03-18T00:17:19.910Z,7.02
2023-03-18T00:18:19.896Z,11.79
2023-03-18T00:21:19.865Z,10.50
2023-03-18T00:22:19.855Z,0.71
2023-03-18T00:23:19.842Z,5.50
2023-03-18T00:24:19.832Z,5.47
2023-03-18T00:25:19.824Z,4.49
2023-03-18T00:26:19.807Z,7.54
2023-03-18T00:27:19.801Z,7.54
2023-03-18T00:28:19.788Z,20.47
2023-03-18T00:34:19.725Z,6.39
2023-03-18T00:35:19.713Z,2.56
2023-03-18T00:36:19.698Z,2.56
2023-03-18T00:37:19.690Z,21.87
2023-03-18T00:38:19.676Z,16.55
2023-03-18T00:39:19.671Z,28.47
2023-03-18T00:40:19.654Z,4.49
2023-03-18T00:41:19.644Z,11.05
2023-03-18T00:42:19.635Z,11.05
2023-03-18T00:44:19.610Z,4.52
2023-03-18T00:45:19.605Z,4.52
2023-03-18T00:46:19.663Z,4.04
2023-03-18T00:47:19.578Z,19.80
2023-03-18T00:48:19.589Z,10.63
2023-03-18T00:49:19.557Z,10.63
2023-03-18T00:50:19.545Z,10.63
2023-03-18T00:51:19.534Z,10.63
2023-03-18T00:53:19.513Z,12.78
2023-03-18T00:54:19.499Z,7.78
2023-03-18T00:55:19.491Z,8.40
2023-03-18T00:57:19.469Z,8.37
2023-03-18T00:58:19.462Z,0.78
2023-03-18T00:59:19.451Z,16.29
2023-03-18T01:00:19.434Z,3.76
2023-03-18T01:01:19.501Z,3.76
2023-03-18T01:02:19.482Z,20.38
2023-03-18T01:03:19.404Z,20.38
2023-03-18T01:04:19.419Z,6.26
2023-03-18T01:05:19.382Z,6.26
2023-03-18T01:06:19.370Z,9.32
2023-03-18T01:07:19.365Z,0.74
2023-03-18T01:08:19.354Z,0.74
2023-03-18T01:09:19.339Z,6.45
2023-03-18T01:10:19.326Z,5.47
2023-03-18T01:11:19.323Z,7.70
2023-03-18T01:12:19.316Z,6.84
2023-03-18T01:13:19.293Z,15.62
2023-03-18T01:14:19.281Z,13.41
2023-03-18T01:15:19.281Z,13.41
2023-03-18T01:16:19.350Z,4.31
2023-03-18T01:17:19.258Z,18.79
2023-03-18T01:18:19.241Z,7.28
2023-03-18T01:19:19.231Z,9.88
2023-03-18T01:20:19.240Z,9.88
2023-03-18T01:21:19.216Z,9.80
2023-03-18T01:22:19.196Z,12.62
2023-03-18T01:23:19.185Z,14.67
2023-03-18T01:24:19.175Z,14.67
2023-03-18T01:25:19.163Z,14.67
2023-03-18T01:26:19.155Z,9.55
2023-03-18T01:27:19.152Z,9.55
2023-03-18T01:28:19.136Z,9.55
2023-03-18T01:29:19.120Z,9.95
2023-03-18T01:30:19.112Z,13.90
2023-03-18T01:31:19.150Z,9.33
2023-03-18T01:32:19.086Z,9.33
2023-03-18T01:33:19.075Z,10.40
2023-03-18T01:34:19.083Z,10.95
2023-03-18T01:35:19.052Z,10.95
2023-03-18T01:36:19.067Z,10.19
2023-03-18T01:38:19.020Z,24.08
2023-03-18T01:39:19.008Z,26.30
2023-03-18T01:40:19.006Z,26.30
2023-03-18T01:41:18.987Z,26.30
2023-03-18T01:42:18.976Z,26.77
2023-03-18T01:43:18.959Z,19.72
2023-03-18T01:44:18.959Z,15.52
2023-03-18T01:45:18.940Z,15.52
2023-03-18T01:46:18.931Z,11.82
2023-03-18T01:47:18.917Z,10.21
2023-03-18T01:48:18.914Z,8.24
2023-03-18T01:49:18.895Z,5.55
2023-03-18T01:50:18.888Z,20.28
2023-03-18T01:51:18.876Z,11.52
2023-03-18T01:52:18.883Z,11.52
2023-03-18T01:53:18.850Z,10.90
2023-03-18T01:54:18.845Z,10.68
2023-03-18T01:55:18.829Z,10.35
2023-03-18T01:56:18.820Z,7.94
2023-03-18T01:57:18.804Z,7.94
2023-03-18T01:58:18.802Z,7.94
2023-03-18T01:59:18.785Z,7.94
2023-03-18T02:01:18.773Z,14.98
2023-03-18T02:02:18.754Z,14.98
2023-03-18T02:03:18.741Z,12.25
2023-03-18T02:04:18.733Z,12.25
2023-03-18T02:05:18.719Z,10.74
2023-03-18T02:07:18.698Z,8.09
2023-03-18T02:08:18.710Z,8.09
2023-03-18T02:09:18.677Z,8.57
2023-03-18T02:10:18.667Z,8.57
2023-03-18T02:11:18.657Z,7.40
2023-03-18T02:12:18.646Z,14.99
2023-03-18T02:13:18.637Z,14.99
2023-03-18T02:14:18.628Z,14.99
2023-03-18T02:15:18.613Z,20.54
2023-03-18T02:16:18.669Z,11.25
2023-03-18T02:17:18.590Z,1.99
2023-03-18T02:18:18.580Z,18.79
2023-03-18T02:19:18.568Z,10.60
2023-03-18T02:20:18.558Z,9.54
2023-03-18T02:21:18.664Z,9.54
2023-03-18T02:22:18.537Z,8.95
2023-03-18T02:23:18.532Z,0.36
2023-03-18T02:24:18.533Z,0.36
2023-03-18T02:25:18.514Z,0.36
2023-03-18T02:27:18.483Z,4.86
2023-03-18T02:33:18.420Z,8.11
2023-03-18T02:34:18.405Z,3.40
2023-03-18T02:37:18.371Z,0.42
2023-03-18T02:38:18.361Z,1.21
2023-03-18T02:39:18.355Z,1.41
2023-03-18T02:40:18.364Z,3.06
2023-03-18T02:41:18.325Z,6.71
2023-03-18T02:42:18.329Z,6.71
2023-03-18T02:43:18.311Z,8.52
2023-03-18T02:44:18.294Z,8.60
2023-03-18T02:45:18.288Z,9.26
2023-03-18T02:46:18.350Z,8.84
2023-03-18T02:47:18.268Z,8.84
2023-03-18T02:48:18.251Z,8.84
2023-03-18T02:49:18.241Z,8.84
2023-03-18T02:50:18.229Z,8.84
2023-03-18T02:51:18.224Z,9.78
2023-03-18T02:52:18.209Z,9.78
2023-03-18T02:53:18.196Z,9.78
2023-03-18T02:54:18.189Z,0.20
2023-03-18T02:55:18.178Z,6.18
2023-03-18T02:56:18.187Z,17.05
2023-03-18T02:57:18.154Z,17.05
2023-03-18T02:58:18.145Z,17.05
2023-03-18T02:59:18.136Z,2.34
2023-03-18T03:00:18.122Z,22.77
2023-03-18T03:01:18.128Z,12.30
2023-03-18T03:02:18.135Z,13.67
2023-03-18T03:04:18.082Z,13.67
2023-03-18T03:05:18.068Z,9.32
2023-03-18T03:06:18.081Z,9.32
2023-03-18T03:07:18.054Z,9.32
2023-03-18T03:08:18.040Z,8.58
2023-03-18T03:09:18.022Z,8.58
2023-03-18T03:11:18.000Z,6.73
2023-03-18T03:12:18.014Z,4.56
2023-03-18T03:13:17.979Z,14.86
2023-03-18T03:14:17.971Z,14.86
2023-03-18T03:15:17.958Z,3.91
2023-03-18T03:16:18.006Z,6.66
2023-03-18T03:17:17.937Z,5.58
2023-03-18T03:18:17.938Z,6.49
2023-03-18T03:19:17.950Z,12.90
2023-03-18T03:20:17.905Z,12.90
2023-03-18T03:21:17.896Z,12.90
2023-03-18T03:22:17.883Z,4.87
2023-03-18T03:23:17.871Z,7.61
2023-03-18T03:24:17.868Z,5.42
2023-03-18T03:27:17.832Z,1.57
2023-03-18T03:28:17.846Z,6.32
2023-03-18T03:29:17.805Z,6.32
2023-03-18T03:30:17.797Z,5.73
2023-03-18T03:31:17.905Z,17.60
2023-03-18T03:32:17.774Z,9.53
2023-03-18T03:33:17.763Z,12.21
2023-03-18T03:34:17.761Z,12.21
2023-03-18T03:35:17.738Z,12.21
2023-03-18T03:38:17.714Z,1.70
2023-03-18T03:39:17.696Z,1.70
2023-03-18T03:40:17.686Z,5.81
2023-03-18T03:41:17.673Z,16.05
2023-03-18T03:42:17.663Z,9.83
2023-03-18T03:43:17.650Z,9.83
2023-03-18T03:44:17.662Z,22.04
2023-03-18T03:45:17.636Z,22.04
2023-03-18T03:46:17.694Z,2.35
2023-03-18T03:47:17.609Z,7.33
2023-03-18T03:48:17.605Z,7.64
2023-03-18T03:50:17.576Z,17.59
2023-03-18T03:51:17.577Z,17.59
2023-03-18T03:52:17.554Z,8.12
2023-03-18T03:55:17.519Z,1.54
2023-03-18T03:56:17.509Z,5.32
2023-03-18T03:57:17.508Z,5.32
2023-03-18T03:58:17.487Z,4.26
2023-03-18T03:59:17.476Z,12.11
2023-03-18T04:00:17.483Z,8.75
2023-03-18T04:01:17.453Z,10.39
2023-03-18T04:02:17.475Z,8.44
2023-03-18T04:04:17.500Z,3.74
2023-03-18T04:05:17.417Z,3.13
2023-03-18T04:12:17.336Z,10.26
2023-03-18T04:13:17.332Z,10.26
2023-03-18T04:14:17.330Z,10.26
2023-03-18T04:15:17.331Z,11.07
2023-03-18T04:16:17.352Z,24.39
2023-03-18T04:17:17.279Z,24.39
2023-03-18T04:18:17.275Z,13.65
2023-03-18T04:19:17.253Z,13.65
2023-03-18T04:20:17.252Z,11.01
2023-03-18T04:21:17.231Z,8.01
2023-03-18T04:22:17.226Z,9.63
2023-03-18T04:23:17.217Z,9.84
2023-03-18T04:24:17.202Z,9.84
2023-03-18T04:25:17.194Z,23.87
2023-03-18T04:26:17.180Z,14.40
2023-03-18T04:27:17.163Z,14.40
2023-03-18T04:28:17.157Z,14.07
2023-03-18T04:29:17.142Z,9.80
2023-03-18T04:30:17.142Z,25.41
2023-03-18T04:31:17.227Z,16.04
2023-03-18T04:32:17.138Z,16.04
2023-03-18T04:33:17.097Z,2.30
2023-03-18T04:34:17.106Z,2.30
2023-03-18T04:35:17.085Z,12.76
2023-03-18T04:38:17.045Z,6.05
2023-03-18T04:42:16.999Z,5.26
2023-03-18T04:43:16.989Z,5.26
2023-03-18T04:46:17.020Z,16.08
2023-03-18T04:48:16.957Z,6.55
2023-03-18T04:49:16.926Z,6.55
2023-03-18T04:50:16.913Z,5.96
2023-03-18T04:51:16.898Z,5.96
2023-03-18T04:52:16.893Z,7.88
2023-03-18T04:53:16.889Z,7.88
2023-03-18T04:55:16.860Z,13.87
2023-03-18T04:56:16.846Z,15.24
2023-03-18T04:57:16.840Z,15.24
2023-03-18T04:58:16.823Z,11.07
2023-03-18T04:59:16.821Z,25.70
2023-03-18T05:00:16.802Z,25.70
2023-03-18T05:01:16.851Z,14.41
2023-03-18T05:02:16.781Z,11.32
2023-03-18T05:03:16.772Z,11.32
2023-03-18T05:04:16.880Z,9.37
2023-03-18T05:05:16.744Z,9.37
2023-03-18T05:06:16.739Z,9.66
2023-03-18T05:07:16.746Z,9.66
2023-03-18T05:08:16.723Z,9.66
2023-03-18T05:09:16.703Z,10.39
2023-03-18T05:10:16.692Z,8.27
2023-03-18T05:11:16.682Z,8.27
2023-03-18T05:12:16.683Z,10.75
2023-03-18T05:13:16.660Z,10.75
2023-03-18T05:14:16.653Z,10.75
2023-03-18T05:15:16.640Z,9.12
2023-03-18T05:16:16.663Z,0.45
2023-03-18T05:17:16.614Z,4.38
2023-03-18T05:19:16.801Z,5.29
2023-03-18T05:20:16.615Z,16.68
2023-03-18T05:21:16.571Z,16.68
2023-03-18T05:22:16.570Z,16.68
2023-03-18T05:23:16.550Z,16.68
2023-03-18T05:24:16.540Z,1.26
2023-03-18T05:25:16.554Z,18.64
2023-03-18T05:26:16.519Z,18.64
2023-03-18T05:27:16.516Z,7.69
2023-03-18T05:28:16.498Z,5.80
2023-03-18T05:29:16.494Z,5.93
2023-03-18T05:31:16.599Z,7.30
2023-03-18T05:32:16.453Z,6.06
2023-03-18T05:33:16.442Z,17.87
2023-03-18T05:34:16.432Z,11.78
2023-03-18T05:35:16.421Z,16.87
2023-03-18T05:36:16.429Z,16.87
2023-03-18T05:37:16.415Z,16.87
2023-03-18T05:38:16.395Z,0.63
2023-03-18T05:40:16.442Z,0.25
2023-03-18T05:45:16.310Z,1.94
2023-03-18T05:46:16.367Z,15.34
2023-03-18T05:47:16.287Z,24.26
2023-03-18T05:48:16.276Z,18.19
2023-03-18T05:49:16.267Z,18.19
2023-03-18T05:50:16.261Z,9.60
2023-03-18T05:51:16.243Z,9.60
2023-03-18T05:52:16.250Z,23.12
2023-03-18T05:53:16.240Z,23.12
2023-03-18T05:54:16.206Z,23.12
2023-03-18T05:55:16.201Z,12.82
2023-03-18T05:56:16.187Z,13.74
2023-03-18T05:57:16.179Z,20.87
2023-03-18T05:58:16.168Z,6.16
2023-03-18T05:59:16.154Z,6.47
2023-03-18T06:00:16.145Z,4.28
2023-03-18T06:03:16.196Z,1.90
2023-03-18T06:04:16.103Z,10.94
2023-03-18T06:05:16.094Z,7.96
2023-03-18T06:06:16.078Z,7.67
2023-03-18T06:07:16.076Z,7.67
2023-03-18T06:08:16.083Z,7.67
2023-03-18T06:09:16.058Z,7.67
2023-03-18T06:10:16.099Z,4.99
2023-03-18T06:12:16.035Z,14.56
2023-03-18T06:13:16.007Z,14.56
2023-03-18T06:14:15.994Z,8.08
2023-03-18T06:15:15.985Z,9.28
2023-03-18T06:16:16.022Z,9.28
2023-03-18T06:17:15.995Z,9.28
2023-03-18T06:18:15.965Z,12.79
2023-03-18T06:19:15.956Z,12.79
2023-03-18T06:20:15.951Z,9.01
2023-03-18T06:21:15.918Z,9.01
2023-03-18T06:22:15.910Z,11.23
2023-03-18T06:23:15.897Z,3.93
2023-03-18T06:24:16.003Z,14.43
2023-03-18T06:25:15.874Z,23.65
2023-03-18T06:26:15.866Z,12.68
2023-03-18T06:27:15.873Z,16.36
2023-03-18T06:28:15.840Z,16.36
2023-03-18T06:29:15.829Z,16.36
2023-03-18T06:30:15.817Z,16.36
2023-03-18T06:31:15.918Z,11.89
2023-03-18T06:32:15.796Z,16.81
2023-03-18T06:33:15.793Z,16.81
2023-03-18T06:34:15.776Z,11.27
2023-03-18T06:35:15.769Z,11.27
2023-03-18T06:36:15.803Z,18.29
2023-03-18T06:37:15.745Z,21.16
2023-03-18T06:38:15.731Z,21.16
2023-03-18T06:39:15.722Z,13.46
2023-03-18T06:40:15.733Z,21.68
2023-03-18T06:41:15.700Z,21.68
2023-03-18T06:42:15.686Z,21.68
2023-03-18T06:43:15.675Z,21.68
2023-03-18T06:44:15.664Z,11.54
2023-03-18T06:45:15.657Z,0.83
2023-03-18T06:46:15.705Z,4.91
2023-03-18T06:47:15.635Z,5.29
2023-03-18T06:48:15.635Z,7.39
2023-03-18T06:49:15.613Z,6.70
2023-03-18T06:50:15.620Z,6.50
2023-03-18T06:51:15.615Z,6.50
2023-03-18T06:52:15.581Z,7.77
2023-03-18T06:53:15.568Z,1.71
2023-03-18T06:54:15.556Z,1.71
2023-03-18T06:55:15.548Z,12.31
2023-03-18T06:56:15.552Z,12.31
2023-03-18T06:57:15.526Z,12.31
2023-03-18T06:58:15.518Z,12.31
2023-03-18T06:59:15.509Z,7.26
2023-03-18T07:01:15.495Z,3.79
2023-03-18T07:02:18.470Z,4.23
2023-03-18T07:03:15.460Z,4.23
2023-03-18T07:04:15.550Z,12.81
2023-03-18T07:05:15.440Z,9.30
2023-03-18T07:07:15.420Z,3.90
2023-03-18T07:08:15.403Z,7.22
2023-03-18T07:09:15.415Z,7.22
2023-03-18T07:11:15.377Z,13.99
2023-03-18T07:12:15.378Z,13.99
2023-03-18T07:13:15.353Z,13.99
2023-03-18T07:14:15.335Z,13.99
2023-03-18T07:15:15.324Z,6.16
2023-03-18T07:16:15.377Z,19.50
2023-03-18T07:17:15.313Z,19.50
2023-03-18T07:21:15.273Z,6.15
2023-03-18T07:22:15.252Z,9.37
2023-03-18T07:23:15.238Z,4.28
2023-03-18T07:24:15.236Z,7.96
2023-03-18T07:25:15.213Z,6.08
2023-03-18T07:26:15.200Z,6.08
2023-03-18T07:27:15.196Z,5.10
2023-03-18T07:28:15.202Z,7.20
2023-03-18T07:29:15.170Z,14.66
2023-03-18T07:30:15.165Z,8.64
2023-03-18T07:31:15.278Z,8.64
2023-03-18T07:32:15.142Z,10.61
2023-03-18T07:33:15.127Z,10.61
2023-03-18T07:34:15.147Z,10.61
2023-03-18T07:35:15.135Z,8.33
2023-03-18T07:36:15.112Z,4.04
2023-03-18T07:37:15.083Z,4.16
2023-03-18T07:38:15.090Z,4.61
2023-03-18T07:39:15.063Z,4.61
2023-03-18T07:41:15.042Z,7.65
2023-03-18T07:42:15.025Z,20.16
2023-03-18T07:43:15.019Z,16.67
2023-03-18T07:44:15.027Z,12.92
2023-03-18T07:45:14.994Z,12.92
2023-03-18T07:46:15.001Z,12.92
2023-03-18T07:47:14.970Z,10.76
2023-03-18T07:48:14.958Z,10.06
2023-03-18T07:49:14.952Z,10.76
2023-03-18T07:50:14.938Z,10.76
2023-03-18T07:51:14.927Z,9.43
2023-03-18T07:52:14.915Z,9.43
2023-03-18T07:53:16.677Z,3.78
2023-03-18T07:54:14.896Z,8.77
2023-03-18T07:55:14.882Z,8.77
2023-03-18T07:56:14.871Z,1.43
2023-03-18T07:57:14.869Z,1.43
2023-03-18T07:58:14.847Z,1.43
2023-03-18T07:59:17.195Z,5.13
2023-03-18T08:00:14.848Z,4.98
2023-03-18T08:02:14.804Z,3.35
2023-03-18T08:03:14.799Z,4.30
2023-03-18T08:04:14.836Z,4.70
2023-03-18T08:05:14.830Z,10.15
2023-03-18T08:06:14.764Z,10.15
2023-03-18T08:07:14.759Z,11.39
2023-03-18T08:10:14.716Z,4.48
2023-03-18T08:11:14.732Z,20.91
2023-03-18T08:12:16.505Z,11.39
2023-03-18T08:13:14.682Z,11.39
2023-03-18T08:14:14.676Z,11.39
2023-03-18T08:15:14.664Z,11.39
2023-03-18T08:16:14.794Z,11.39
2023-03-18T08:17:14.648Z,18.86
2023-03-18T08:18:14.631Z,14.28
2023-03-18T08:19:14.622Z,14.28
2023-03-18T08:20:14.607Z,14.28
2023-03-18T08:21:14.621Z,11.26
2023-03-18T08:22:14.586Z,11.26
2023-03-18T08:23:14.578Z,9.81
2023-03-18T08:24:14.562Z,9.81
2023-03-18T08:25:14.644Z,21.23
2023-03-18T08:26:14.541Z,28.67
2023-03-18T08:27:14.532Z,18.22
2023-03-18T08:28:14.518Z,9.05
2023-03-18T08:29:14.510Z,9.05
2023-03-18T08:30:14.496Z,8.45
2023-03-18T08:31:14.559Z,7.52
2023-03-18T08:32:14.494Z,7.52
2023-03-18T08:33:14.475Z,8.08
2023-03-18T08:34:14.463Z,20.84
2023-03-18T08:35:14.458Z,11.65
2023-03-18T08:36:14.489Z,8.13
2023-03-18T08:37:14.420Z,6.88
2023-03-18T08:38:14.411Z,6.68
2023-03-18T08:39:14.398Z,9.63
2023-03-18T08:40:14.385Z,11.39
2023-03-18T08:41:14.377Z,11.39
2023-03-18T08:42:14.371Z,8.76
2023-03-18T08:43:14.356Z,7.53
2023-03-18T08:44:14.343Z,7.53
2023-03-18T08:45:14.333Z,15.87
2023-03-18T08:46:14.414Z,25.21
2023-03-18T08:47:14.316Z,25.21
2023-03-18T08:48:14.320Z,25.21
2023-03-18T08:49:14.305Z,2.00
2023-03-18T08:50:14.293Z,9.19
2023-03-18T08:51:14.270Z,4.18
2023-03-18T08:52:14.257Z,7.41
2023-03-18T08:54:14.237Z,6.66
2023-03-18T08:55:14.224Z,5.24
2023-03-18T08:56:14.212Z,5.24
2023-03-18T08:58:14.192Z,13.55
2023-03-18T08:59:14.181Z,13.55
2023-03-18T09:03:14.199Z,3.46
2023-03-18T09:06:14.107Z,2.66
2023-03-18T09:07:14.093Z,2.66
2023-03-18T09:08:14.083Z,14.24
2023-03-18T09:27:10.653Z,23.06
2023-03-18T09:28:10.654Z,23.59
2023-03-18T09:29:10.661Z,21.04
2023-03-18T09:30:10.617Z,23.54
2023-03-18T09:31:10.677Z,22.05
2023-03-18T09:32:10.649Z,22.59
2023-03-18T09:34:57.259Z,22.62
2023-03-18T09:35:57.314Z,22.67
2023-03-18T09:39:11.709Z,21.97
2023-03-18T09:40:11.710Z,22.34
2023-03-18T09:41:11.709Z,21.78
2023-03-18T09:42:11.717Z,24.36
2023-03-18T09:48:22.330Z,186.22
2023-03-18T09:49:22.293Z,186.86
2023-03-18T09:50:22.368Z,185.57
2023-03-18T09:51:27.532Z,187.17
2023-03-18T10:12:09.023Z,137.88
2023-03-18T10:13:08.997Z,137.22
2023-03-18T10:14:08.961Z,136.25
2023-03-18T10:15:08.918Z,136.91
2023-03-18T10:16:08.927Z,138.83
2023-03-18T10:17:08.863Z,137.88
2023-03-18T10:18:08.840Z,139.16
2023-03-18T10:18:43.599Z,9.60
2023-03-18T10:19:43.597Z,8.32
2023-03-18T10:20:48.315Z,8.23
2023-03-18T10:22:05.260Z,9.36
2023-03-18T10:23:02.556Z,9.93
2023-03-18T10:23:44.583Z,26.37
2023-03-18T10:25:44.573Z,5.82
2023-03-18T10:28:44.523Z,13.96
2023-03-18T10:29:44.514Z,25.80
2023-03-18T10:30:44.528Z,24.04
2023-03-18T10:31:44.498Z,4.21
2023-03-18T10:33:44.475Z,13.00
2023-03-18T10:34:44.461Z,8.89
2023-03-18T10:36:44.440Z,28.46
2023-03-18T10:38:44.418Z,2.44
2023-03-18T10:39:44.409Z,13.96
2023-03-18T10:40:44.400Z,0.11
2023-03-18T10:41:44.405Z,1.32
2023-03-18T10:42:44.377Z,11.47
2023-03-18T10:43:44.365Z,0.19
2023-03-18T10:44:44.352Z,21.13
2023-03-18T10:45:44.345Z,23.30
2023-03-18T10:47:44.321Z,14.52
2023-03-18T10:48:44.315Z,12.51
2023-03-18T10:49:44.303Z,38.38
2023-03-18T10:50:44.299Z,16.21
2023-03-18T10:51:44.277Z,2.59
2023-03-18T10:52:44.269Z,16.62
2023-03-18T10:53:44.259Z,9.21
2023-03-18T10:54:44.251Z,10.02
2023-03-18T10:55:44.235Z,32.90
2023-03-18T10:58:44.205Z,9.36
2023-03-18T11:00:44.185Z,11.47
2023-03-18T11:01:44.285Z,4.78
2023-03-18T11:02:44.300Z,19.04
2023-03-18T11:03:44.165Z,7.28
2023-03-18T11:04:44.145Z,13.47
2023-03-18T11:05:44.130Z,8.56
2023-03-18T11:06:44.133Z,24.52
2023-03-18T11:07:44.109Z,4.69
2023-03-18T11:08:44.099Z,8.32
2023-03-18T11:09:44.087Z,9.05
2023-03-18T11:10:44.081Z,5.09
2023-03-18T11:11:44.068Z,34.99
2023-03-18T11:12:44.057Z,15.32
2023-03-18T11:13:44.069Z,5.82
2023-03-18T11:15:44.100Z,15.65
2023-03-18T11:16:44.017Z,8.00
2023-03-18T11:18:43.994Z,8.97
2023-03-18T11:19:43.983Z,11.63
2023-03-18T11:20:43.973Z,8.89
2023-03-18T11:21:43.962Z,11.63
2023-03-18T11:23:43.941Z,25.88
2023-03-18T11:24:43.928Z,5.51
2023-03-18T11:25:43.920Z,22.90
2023-03-18T11:26:43.918Z,9.93
2023-03-18T11:27:43.900Z,5.51
2023-03-18T11:28:43.895Z,14.21
2023-03-18T11:29:46.286Z,0.03
2023-03-18T11:30:44.244Z,3.65
2023-03-18T11:31:43.875Z,5.67
2023-03-18T11:32:43.887Z,5.42
2023-03-18T11:34:43.832Z,20.48
2023-03-18T11:36:43.806Z,10.65
2023-03-18T11:37:43.791Z,12.60
2023-03-18T11:38:43.782Z,28.13
2023-03-18T11:39:43.921Z,9.05
2023-03-18T11:41:43.747Z,12.43
2023-03-18T11:43:43.731Z,8.81
2023-03-18T11:44:43.718Z,8.48
2023-03-18T11:45:43.725Z,14.36
2023-03-18T11:46:43.770Z,5.51
2023-03-18T11:47:43.686Z,12.10
2023-03-18T11:48:43.707Z,6.79
2023-03-18T11:49:43.667Z,8.81
2023-03-18T11:52:43.632Z,17.19
2023-03-18T11:53:43.621Z,21.70
2023-03-18T11:54:43.612Z,23.22
2023-03-18T11:55:43.599Z,9.60
2023-03-18T11:56:43.593Z,11.86
2023-03-18T11:58:43.570Z,15.89
2023-03-18T11:59:43.558Z,12.10
2023-03-18T12:00:43.558Z,13.31
2023-03-18T12:01:43.584Z,4.21
2023-03-18T12:02:43.533Z,17.75
2023-03-18T12:03:43.521Z,23.70
2023-03-18T12:04:43.684Z,7.67
2023-03-18T12:05:43.503Z,12.60
2023-03-18T12:06:43.487Z,24.68
2023-03-18T12:07:43.474Z,8.56
2023-03-18T12:08:43.468Z,15.50
2023-03-18T12:09:43.463Z,17.11
2023-03-18T12:10:43.443Z,15.17
2023-03-18T12:11:43.438Z,9.85
2023-03-18T12:12:43.425Z,2.27
2023-03-18T12:13:43.414Z,21.37
2023-03-18T12:14:43.408Z,21.04
2023-03-18T12:15:43.391Z,22.34
2023-03-18T12:16:43.473Z,6.71
2023-03-18T12:17:43.397Z,3.73
2023-03-18T12:18:43.381Z,14.77
2023-03-18T12:19:43.363Z,11.22
2023-03-18T12:20:43.342Z,12.02
2023-03-18T12:21:43.328Z,31.29
2023-03-18T12:22:43.320Z,21.21
2023-03-18T12:23:43.306Z,6.71
2023-03-18T12:24:43.299Z,0.35
2023-03-18T12:26:43.281Z,9.60
2023-03-18T12:27:43.269Z,6.30
2023-03-18T12:28:43.256Z,5.42
2023-03-18T12:29:43.246Z,21.21
2023-03-18T12:31:43.250Z,27.97
2023-03-18T12:32:43.280Z,20.17
2023-03-18T12:33:43.232Z,8.89
2023-03-18T12:34:43.194Z,8.64
2023-03-18T12:35:43.208Z,15.32
2023-03-18T12:36:43.173Z,9.28
2023-03-18T12:37:43.159Z,8.89
2023-03-18T12:38:43.153Z,9.52
2023-03-18T12:39:43.142Z,3.80
2023-03-18T12:40:43.131Z,28.70
2023-03-18T12:41:43.121Z,9.36
2023-03-18T12:42:43.112Z,7.84
2023-03-18T12:43:43.099Z,10.65
2023-03-18T12:44:43.097Z,18.79
2023-03-18T12:45:43.117Z,17.98
2023-03-18T12:46:43.069Z,13.72
2023-03-18T12:47:43.061Z,9.93
2023-03-18T12:48:44.744Z,16.37
2023-03-18T12:50:43.040Z,1.07
2023-03-18T12:51:43.017Z,22.10
2023-03-18T12:52:43.004Z,9.21
2023-03-18T12:53:42.994Z,6.96
2023-03-18T12:54:42.981Z,13.23
2023-03-18T12:55:42.970Z,6.79
2023-03-18T12:58:42.964Z,7.44
2023-03-18T12:59:42.928Z,15.97
2023-03-18T13:00:42.944Z,9.28
2023-03-18T13:01:42.980Z,11.22
2023-03-18T13:02:43.020Z,13.47
2023-03-18T13:03:42.887Z,15.97
2023-03-18T13:04:42.874Z,7.28
2023-03-18T13:05:42.915Z,20.01
2023-03-18T13:06:42.853Z,9.28
2023-03-18T13:07:42.838Z,7.67
2023-03-18T13:08:42.842Z,12.43
2023-03-18T13:09:42.820Z,1.96
2023-03-18T13:10:42.809Z,17.98
2023-03-18T13:11:42.795Z,18.14
2023-03-18T13:12:42.788Z,28.87
2023-03-18T13:13:42.773Z,13.56
2023-03-18T13:14:42.808Z,20.48
2023-03-18T13:15:42.754Z,20.80
2023-03-18T13:17:42.737Z,3.73
2023-03-18T13:18:42.721Z,16.95
2023-03-18T13:19:42.709Z,11.14
2023-03-18T13:20:42.700Z,8.32
2023-03-18T13:21:42.705Z,14.36
2023-03-18T13:22:42.679Z,12.43
2023-03-18T13:23:42.664Z,9.36
2023-03-18T13:24:42.656Z,17.03
2023-03-18T13:25:42.647Z,6.55
2023-03-18T13:26:42.634Z,12.60
2023-03-18T13:27:42.623Z,1.64
2023-03-18T13:28:42.651Z,30.31
2023-03-18T13:29:45.035Z,35.72
2023-03-18T13:30:42.618Z,-4.00
2023-03-18T13:31:42.579Z,12.60
2023-03-18T13:32:42.603Z,12.51
2023-03-18T13:33:42.558Z,18.79
2023-03-18T13:34:42.544Z,32.25
2023-03-18T13:35:42.550Z,10.73
2023-03-18T13:36:42.528Z,7.76
2023-03-18T13:37:42.532Z,15.50
2023-03-18T13:39:42.499Z,38.77
2023-03-18T13:40:43.031Z,4.61
2023-03-18T13:41:42.470Z,5.59
2023-03-18T13:42:42.466Z,15.81
2023-03-18T13:43:42.451Z,19.20
2023-03-18T13:44:42.441Z,10.50
2023-03-18T13:45:42.437Z,8.40
2023-03-18T13:47:42.411Z,20.72
2023-03-18T13:48:42.408Z,14.52
2023-03-18T13:49:42.390Z,14.85
2023-03-18T13:50:42.397Z,13.88
2023-03-18T13:51:42.368Z,15.57
2023-03-18T13:53:42.362Z,24.28
2023-03-18T13:54:42.333Z,5.34
2023-03-18T13:55:42.320Z,5.42
2023-03-18T13:57:42.301Z,11.31
2023-03-18T13:58:42.285Z,11.47
2023-03-18T14:00:42.302Z,11.94
2023-03-18T14:01:42.264Z,30.31
2023-03-18T14:02:42.247Z,22.82
2023-03-18T14:03:42.442Z,12.43
2023-03-18T14:05:42.220Z,0.35
2023-03-18T14:06:42.209Z,6.86
2023-03-18T14:08:42.185Z,4.78
2023-03-18T14:09:42.192Z,21.13
2023-03-18T14:10:42.206Z,8.64
2023-03-18T14:11:43.625Z,1.72
2023-03-18T14:12:42.217Z,21.54
2023-03-18T14:13:42.190Z,19.68
2023-03-18T14:14:42.122Z,25.00
2023-03-18T14:15:42.203Z,9.36
2023-03-18T14:16:42.099Z,9.36
2023-03-18T14:17:42.093Z,8.15
2023-03-18T14:18:42.081Z,23.95
2023-03-18T14:19:42.070Z,9.28
2023-03-18T14:20:42.060Z,4.61
2023-03-18T14:21:42.048Z,4.61
2023-03-18T14:22:42.034Z,15.57
2023-03-18T14:24:42.014Z,9.68
2023-03-18T14:25:42.027Z,14.36
2023-03-18T14:26:41.995Z,11.86
2023-03-18T14:27:41.991Z,14.60
2023-03-18T14:28:41.979Z,8.72
2023-03-18T14:29:41.960Z,15.73
2023-03-18T14:30:41.954Z,31.45
2023-03-18T14:33:41.922Z,6.86
2023-03-18T14:34:41.908Z,22.98
2023-03-18T14:35:41.930Z,22.34
2023-03-18T14:36:41.886Z,4.69
2023-03-18T14:37:41.877Z,12.43
2023-03-18T14:38:41.866Z,5.67
2023-03-18T14:39:41.857Z,9.36
2023-03-18T14:40:41.853Z,20.01
2023-03-18T14:41:41.855Z,24.60
2023-03-18T14:42:41.832Z,6.63
2023-03-18T14:43:41.814Z,19.20
2023-03-18T14:44:41.805Z,24.20
2023-03-18T14:45:41.792Z,21.29
2023-03-18T14:46:41.880Z,12.68
2023-03-18T14:47:41.771Z,0.51
2023-03-18T14:48:41.760Z,16.05
2023-03-18T14:49:41.757Z,5.67
2023-03-18T14:50:41.736Z,13.00
2023-03-18T14:51:41.727Z,20.48
2023-03-18T14:52:41.715Z,19.44
2023-03-18T14:53:41.717Z,8.56
2023-03-18T14:54:41.692Z,18.06
2023-03-18T14:55:41.712Z,4.05
2023-03-18T14:57:41.681Z,25.96
2023-03-18T14:58:41.651Z,10.97
2023-03-18T14:59:41.641Z,6.96
2023-03-18T15:00:41.630Z,10.65
2023-03-18T15:01:41.719Z,13.56
2023-03-18T15:02:41.621Z,30.63
2023-03-18T15:04:41.585Z,11.22
2023-03-18T15:05:41.579Z,13.80
2023-03-18T15:08:48.125Z,11.79
2023-03-18T15:09:42.566Z,22.10
2023-03-18T15:11:41.513Z,4.53
2023-03-18T15:12:41.501Z,34.59
2023-03-18T15:13:41.511Z,16.54
2023-03-18T15:14:41.479Z,3.41
2023-03-18T15:15:41.469Z,16.70
2023-03-18T15:16:41.535Z,12.43
2023-03-18T15:17:41.451Z,30.23
2023-03-18T15:18:41.440Z,7.67
2023-03-18T15:19:41.430Z,34.75
2023-03-18T15:21:41.412Z,13.64
2023-03-18T15:22:41.394Z,13.88
2023-03-18T15:24:41.375Z,7.44
2023-03-18T15:25:41.364Z,25.72
2023-03-18T15:26:41.364Z,25.80
2023-03-18T15:28:41.332Z,12.76
2023-03-18T15:29:41.345Z,6.79
2023-03-18T15:30:41.310Z,14.52
2023-03-18T15:31:41.359Z,27.97
2023-03-18T15:32:41.321Z,2.93
2023-03-18T15:33:41.284Z,6.96
2023-03-18T15:34:41.273Z,2.84
2023-03-18T15:35:41.280Z,10.26
2023-03-18T15:36:41.248Z,10.89
2023-03-18T15:37:41.245Z,12.27
2023-03-18T15:38:41.226Z,7.92
2023-03-18T15:40:41.206Z,7.92
2023-03-18T15:41:41.203Z,23.38
2023-03-18T15:44:41.162Z,10.65
2023-03-18T15:45:41.228Z,13.39
2023-03-18T15:46:41.142Z,9.36
2023-03-18T15:48:41.128Z,35.95
2023-03-18T15:49:41.111Z,13.64
2023-03-18T15:51:41.095Z,6.23
2023-03-18T15:52:41.081Z,22.34